sensor_id;sensor_type;location;lat;lon;timestamp;temperature;humidity
1680;DHT22;838;51.794;12.258;2023-07-16T00:00:59;22.30;59.90
1680;DHT22;838;51.794;12.258;2023-07-16T00:03:25;22.30;58.30
1680;DHT22;838;51.794;12.258;2023-07-16T00:05:51;22.50;57.20
1680;DHT22;838;51.794;12.258;2023-07-16T00:08:17;22.60;56.20
1680;DHT22;838;51.794;12.258;2023-07-16T00:10:43;22.60;56.40
1680;DHT22;838;51.794;12.258;2023-07-16T00:13:09;22.70;55.80
1680;DHT22;838;51.794;12.258;2023-07-16T00:15:34;22.80;51.90
1680;DHT22;838;51.794;12.258;2023-07-16T00:18:00;22.90;52.40
1680;DHT22;838;51.794;12.258;2023-07-16T00:20:26;22.90;51.60
1680;DHT22;838;51.794;12.258;2023-07-16T00:22:52;22.90;51.90
1680;DHT22;838;51.794;12.258;2023-07-16T00:25:18;22.90;52.70
1680;DHT22;838;51.794;12.258;2023-07-16T00:27:44;22.90;53.90
1680;DHT22;838;51.794;12.258;2023-07-16T00:30:10;22.80;59.70
1680;DHT22;838;51.794;12.258;2023-07-16T00:32:45;22.50;65.70
1680;DHT22;838;51.794;12.258;2023-07-16T00:35:19;22.20;70.40
1680;DHT22;838;51.794;12.258;2023-07-16T00:37:45;21.90;74.60
1680;DHT22;838;51.794;12.258;2023-07-16T00:40:14;21.80;77.10
1680;DHT22;838;51.794;12.258;2023-07-16T00:42:43;21.60;78.40
1680;DHT22;838;51.794;12.258;2023-07-16T00:45:13;21.60;78.50
1680;DHT22;838;51.794;12.258;2023-07-16T00:47:49;21.50;78.70
1680;DHT22;838;51.794;12.258;2023-07-16T00:50:18;21.50;79.40
1680;DHT22;838;51.794;12.258;2023-07-16T00:52:46;21.50;79.70
1680;DHT22;838;51.794;12.258;2023-07-16T00:55:12;21.50;80.00
1680;DHT22;838;51.794;12.258;2023-07-16T00:57:38;21.60;78.60
1680;DHT22;838;51.794;12.258;2023-07-16T01:00:07;21.50;77.90
1680;DHT22;838;51.794;12.258;2023-07-16T01:02:33;21.60;78.10
1680;DHT22;838;51.794;12.258;2023-07-16T01:04:59;21.60;78.00
1680;DHT22;838;51.794;12.258;2023-07-16T01:07:27;21.60;77.80
1680;DHT22;838;51.794;12.258;2023-07-16T01:09:55;21.60;78.00
1680;DHT22;838;51.794;12.258;2023-07-16T01:12:22;21.80;78.10
1680;DHT22;838;51.794;12.258;2023-07-16T01:14:49;21.90;76.00
1680;DHT22;838;51.794;12.258;2023-07-16T01:17:18;21.80;76.50
1680;DHT22;838;51.794;12.258;2023-07-16T01:19:47;22.00;76.30
1680;DHT22;838;51.794;12.258;2023-07-16T01:25:15;22.30;74.40
1680;DHT22;838;51.794;12.258;2023-07-16T01:30:49;22.20;73.30
1680;DHT22;838;51.794;12.258;2023-07-16T01:33:20;21.70;76.70
1680;DHT22;838;51.794;12.258;2023-07-16T01:35:47;21.50;80.20
1680;DHT22;838;51.794;12.258;2023-07-16T01:38:14;21.50;79.30
1680;DHT22;838;51.794;12.258;2023-07-16T01:40:41;21.60;79.60
1680;DHT22;838;51.794;12.258;2023-07-16T01:43:07;21.90;78.60
1680;DHT22;838;51.794;12.258;2023-07-16T01:45:33;22.10;75.70
1680;DHT22;838;51.794;12.258;2023-07-16T01:48:29;21.90;76.30
1680;DHT22;838;51.794;12.258;2023-07-16T01:50:55;21.50;80.30
1680;DHT22;838;51.794;12.258;2023-07-16T01:53:21;21.00;84.40
1680;DHT22;838;51.794;12.258;2023-07-16T01:55:47;20.90;89.00
1680;DHT22;838;51.794;12.258;2023-07-16T01:58:19;21.10;89.50
1680;DHT22;838;51.794;12.258;2023-07-16T02:00:44;21.20;88.80
1680;DHT22;838;51.794;12.258;2023-07-16T02:03:11;21.20;86.10
1680;DHT22;838;51.794;12.258;2023-07-16T02:05:37;21.20;85.70
1680;DHT22;838;51.794;12.258;2023-07-16T02:08:06;21.20;84.40
1680;DHT22;838;51.794;12.258;2023-07-16T02:10:32;21.20;84.50
1680;DHT22;838;51.794;12.258;2023-07-16T02:12:58;21.00;86.40
1680;DHT22;838;51.794;12.258;2023-07-16T02:15:24;20.70;88.20
1680;DHT22;838;51.794;12.258;2023-07-16T02:17:50;20.60;89.60
1680;DHT22;838;51.794;12.258;2023-07-16T02:20:19;20.80;90.30
1680;DHT22;838;51.794;12.258;2023-07-16T02:22:48;21.10;88.50
1680;DHT22;838;51.794;12.258;2023-07-16T02:25:13;21.30;87.50
1680;DHT22;838;51.794;12.258;2023-07-16T02:27:39;21.60;85.20
1680;DHT22;838;51.794;12.258;2023-07-16T02:30:05;21.80;82.90
1680;DHT22;838;51.794;12.258;2023-07-16T02:32:32;22.00;80.60
1680;DHT22;838;51.794;12.258;2023-07-16T02:34:58;22.10;77.30
1680;DHT22;838;51.794;12.258;2023-07-16T02:37:27;22.00;78.40
1680;DHT22;838;51.794;12.258;2023-07-16T02:39:53;22.00;76.60
1680;DHT22;838;51.794;12.258;2023-07-16T02:42:18;21.80;78.10
1680;DHT22;838;51.794;12.258;2023-07-16T02:44:44;21.80;78.90
1680;DHT22;838;51.794;12.258;2023-07-16T02:47:13;21.50;79.70
1680;DHT22;838;51.794;12.258;2023-07-16T02:49:39;21.00;84.20
1680;DHT22;838;51.794;12.258;2023-07-16T02:52:06;20.60;89.00
1680;DHT22;838;51.794;12.258;2023-07-16T02:54:32;20.30;90.80
1680;DHT22;838;51.794;12.258;2023-07-16T02:56:58;20.20;92.50
1680;DHT22;838;51.794;12.258;2023-07-16T02:59:24;20.00;93.60
1680;DHT22;838;51.794;12.258;2023-07-16T03:01:50;19.90;94.40
1680;DHT22;838;51.794;12.258;2023-07-16T03:04:16;19.90;94.80
1680;DHT22;838;51.794;12.258;2023-07-16T03:06:42;19.90;95.20
1680;DHT22;838;51.794;12.258;2023-07-16T03:09:07;19.90;95.50
1680;DHT22;838;51.794;12.258;2023-07-16T03:11:33;19.90;95.70
1680;DHT22;838;51.794;12.258;2023-07-16T03:13:59;19.90;95.70
1680;DHT22;838;51.794;12.258;2023-07-16T03:16:25;20.00;95.80
1680;DHT22;838;51.794;12.258;2023-07-16T03:18:51;20.20;95.60
1680;DHT22;838;51.794;12.258;2023-07-16T03:21:18;20.20;95.30
1680;DHT22;838;51.794;12.258;2023-07-16T03:23:44;20.30;95.10
1680;DHT22;838;51.794;12.258;2023-07-16T03:26:09;20.50;94.80
1680;DHT22;838;51.794;12.258;2023-07-16T03:28:35;20.60;94.40
1680;DHT22;838;51.794;12.258;2023-07-16T03:31:04;20.60;93.80
1680;DHT22;838;51.794;12.258;2023-07-16T03:33:30;20.70;93.60
1680;DHT22;838;51.794;12.258;2023-07-16T03:36:01;20.80;93.30
1680;DHT22;838;51.794;12.258;2023-07-16T03:38:27;20.90;92.80
1680;DHT22;838;51.794;12.258;2023-07-16T03:40:52;21.10;92.20
1680;DHT22;838;51.794;12.258;2023-07-16T03:43:21;21.10;91.90
1680;DHT22;838;51.794;12.258;2023-07-16T03:45:47;21.10;91.40
1680;DHT22;838;51.794;12.258;2023-07-16T03:48:15;21.30;91.30
1680;DHT22;838;51.794;12.258;2023-07-16T03:50:44;21.20;91.00
1680;DHT22;838;51.794;12.258;2023-07-16T03:53:11;21.30;91.10
1680;DHT22;838;51.794;12.258;2023-07-16T03:55:37;21.30;91.10
1680;DHT22;838;51.794;12.258;2023-07-16T03:58:03;21.30;91.00
1680;DHT22;838;51.794;12.258;2023-07-16T04:00:32;21.30;90.70
1680;DHT22;838;51.794;12.258;2023-07-16T04:02:58;21.30;90.90
1680;DHT22;838;51.794;12.258;2023-07-16T04:05:24;21.30;90.50
1680;DHT22;838;51.794;12.258;2023-07-16T04:07:51;21.20;90.90
1680;DHT22;838;51.794;12.258;2023-07-16T04:10:16;21.20;90.90
1680;DHT22;838;51.794;12.258;2023-07-16T04:12:42;21.30;91.30
1680;DHT22;838;51.794;12.258;2023-07-16T04:15:09;21.30;91.10
1680;DHT22;838;51.794;12.258;2023-07-16T04:17:36;21.20;91.20
1680;DHT22;838;51.794;12.258;2023-07-16T04:20:05;21.30;91.10
1680;DHT22;838;51.794;12.258;2023-07-16T04:22:33;21.30;90.80
1680;DHT22;838;51.794;12.258;2023-07-16T04:24:58;21.40;90.50
1680;DHT22;838;51.794;12.258;2023-07-16T04:27:33;21.40;90.70
1680;DHT22;838;51.794;12.258;2023-07-16T04:30:04;21.50;90.80
1680;DHT22;838;51.794;12.258;2023-07-16T04:32:42;21.50;90.10
1680;DHT22;838;51.794;12.258;2023-07-16T04:35:08;21.60;88.70
1680;DHT22;838;51.794;12.258;2023-07-16T04:37:34;21.60;90.00
1680;DHT22;838;51.794;12.258;2023-07-16T04:40:03;21.70;88.30
1680;DHT22;838;51.794;12.258;2023-07-16T04:42:30;21.80;89.00
1680;DHT22;838;51.794;12.258;2023-07-16T04:44:55;21.90;88.00
1680;DHT22;838;51.794;12.258;2023-07-16T04:47:27;21.90;86.80
1680;DHT22;838;51.794;12.258;2023-07-16T04:49:58;21.90;88.50
1680;DHT22;838;51.794;12.258;2023-07-16T04:52:24;22.00;87.80
1680;DHT22;838;51.794;12.258;2023-07-16T04:54:50;22.10;87.60
1680;DHT22;838;51.794;12.258;2023-07-16T04:57:16;22.10;86.60
1680;DHT22;838;51.794;12.258;2023-07-16T04:59:44;22.00;86.90
1680;DHT22;838;51.794;12.258;2023-07-16T05:02:13;22.10;86.20
1680;DHT22;838;51.794;12.258;2023-07-16T05:04:41;22.20;85.90
1680;DHT22;838;51.794;12.258;2023-07-16T05:07:07;22.20;84.00
1680;DHT22;838;51.794;12.258;2023-07-16T05:09:33;22.20;84.90
1680;DHT22;838;51.794;12.258;2023-07-16T05:12:02;22.20;84.30
1680;DHT22;838;51.794;12.258;2023-07-16T05:14:28;22.30;81.50
1680;DHT22;838;51.794;12.258;2023-07-16T05:16:55;22.40;82.50
1680;DHT22;838;51.794;12.258;2023-07-16T05:19:21;22.60;80.50
1680;DHT22;838;51.794;12.258;2023-07-16T05:21:47;22.80;79.60
1680;DHT22;838;51.794;12.258;2023-07-16T05:24:13;22.80;76.30
1680;DHT22;838;51.794;12.258;2023-07-16T05:26:39;22.70;76.80
1680;DHT22;838;51.794;12.258;2023-07-16T05:29:04;22.60;78.70
1680;DHT22;838;51.794;12.258;2023-07-16T05:31:30;22.60;77.20
1680;DHT22;838;51.794;12.258;2023-07-16T05:33:56;22.60;78.10
1680;DHT22;838;51.794;12.258;2023-07-16T05:36:22;22.70;77.30
1680;DHT22;838;51.794;12.258;2023-07-16T05:38:48;22.80;77.30
1680;DHT22;838;51.794;12.258;2023-07-16T05:41:13;22.90;76.70
1680;DHT22;838;51.794;12.258;2023-07-16T05:43:39;23.00;76.80
1680;DHT22;838;51.794;12.258;2023-07-16T05:46:15;22.90;74.30
1680;DHT22;838;51.794;12.258;2023-07-16T05:48:44;22.90;75.20
1680;DHT22;838;51.794;12.258;2023-07-16T05:51:10;22.90;73.60
1680;DHT22;838;51.794;12.258;2023-07-16T05:53:38;22.90;71.90
1680;DHT22;838;51.794;12.258;2023-07-16T05:56:04;22.90;70.60
1680;DHT22;838;51.794;12.258;2023-07-16T05:58:30;22.90;68.30
1680;DHT22;838;51.794;12.258;2023-07-16T06:00:56;22.90;69.30
1680;DHT22;838;51.794;12.258;2023-07-16T06:03:25;23.00;69.40
1680;DHT22;838;51.794;12.258;2023-07-16T06:05:53;23.10;68.10
1680;DHT22;838;51.794;12.258;2023-07-16T06:08:20;23.10;65.30
1680;DHT22;838;51.794;12.258;2023-07-16T06:10:46;23.00;63.20
1680;DHT22;838;51.794;12.258;2023-07-16T06:13:12;23.00;61.60
1680;DHT22;838;51.794;12.258;2023-07-16T06:15:38;23.00;63.20
1680;DHT22;838;51.794;12.258;2023-07-16T06:18:06;23.00;61.70
1680;DHT22;838;51.794;12.258;2023-07-16T06:20:32;23.00;61.80
1680;DHT22;838;51.794;12.258;2023-07-16T06:23:07;23.20;60.10
1680;DHT22;838;51.794;12.258;2023-07-16T06:25:33;23.10;59.80
1680;DHT22;838;51.794;12.258;2023-07-16T06:28:03;23.20;59.20
1680;DHT22;838;51.794;12.258;2023-07-16T06:30:29;23.40;58.10
1680;DHT22;838;51.794;12.258;2023-07-16T06:32:58;23.50;51.40
1680;DHT22;838;51.794;12.258;2023-07-16T06:35:23;23.50;55.10
1680;DHT22;838;51.794;12.258;2023-07-16T06:37:49;23.60;53.10
1680;DHT22;838;51.794;12.258;2023-07-16T06:40:15;23.70;51.30
1680;DHT22;838;51.794;12.258;2023-07-16T06:42:41;23.60;46.90
1680;DHT22;838;51.794;12.258;2023-07-16T06:45:07;23.40;48.90
1680;DHT22;838;51.794;12.258;2023-07-16T06:47:33;23.40;53.30
1680;DHT22;838;51.794;12.258;2023-07-16T06:49:59;23.60;49.70
1680;DHT22;838;51.794;12.258;2023-07-16T06:52:25;23.70;49.40
1680;DHT22;838;51.794;12.258;2023-07-16T06:54:53;23.70;46.60
1680;DHT22;838;51.794;12.258;2023-07-16T06:57:19;23.80;45.90
1680;DHT22;838;51.794;12.258;2023-07-16T06:59:45;23.80;42.50
1680;DHT22;838;51.794;12.258;2023-07-16T07:02:11;23.70;42.80
1680;DHT22;838;51.794;12.258;2023-07-16T07:04:38;23.70;44.80
1680;DHT22;838;51.794;12.258;2023-07-16T07:07:04;23.80;46.60
1680;DHT22;838;51.794;12.258;2023-07-16T07:09:30;23.80;43.40
1680;DHT22;838;51.794;12.258;2023-07-16T07:11:56;24.00;41.20
1680;DHT22;838;51.794;12.258;2023-07-16T07:14:21;24.20;39.30
1680;DHT22;838;51.794;12.258;2023-07-16T07:16:47;24.40;29.50
1680;DHT22;838;51.794;12.258;2023-07-16T07:19:13;24.70;29.20
1680;DHT22;838;51.794;12.258;2023-07-16T07:21:39;24.90;27.00
1680;DHT22;838;51.794;12.258;2023-07-16T07:24:05;25.00;23.60
1680;DHT22;838;51.794;12.258;2023-07-16T07:26:30;25.20;22.30
1680;DHT22;838;51.794;12.258;2023-07-16T07:28:56;25.50;19.90
1680;DHT22;838;51.794;12.258;2023-07-16T07:31:22;25.80;15.70
1680;DHT22;838;51.794;12.258;2023-07-16T07:33:51;25.80;15.60
1680;DHT22;838;51.794;12.258;2023-07-16T07:36:19;25.60;10.70
1680;DHT22;838;51.794;12.258;2023-07-16T07:38:45;25.30;10.60
1680;DHT22;838;51.794;12.258;2023-07-16T07:41:11;25.10;13.40
1680;DHT22;838;51.794;12.258;2023-07-16T07:43:37;25.20;12.80
1680;DHT22;838;51.794;12.258;2023-07-16T07:46:02;25.20;12.50
1680;DHT22;838;51.794;12.258;2023-07-16T07:48:28;25.30;12.00
1680;DHT22;838;51.794;12.258;2023-07-16T07:50:54;25.20;12.10
1680;DHT22;838;51.794;12.258;2023-07-16T07:53:20;25.50;11.30
1680;DHT22;838;51.794;12.258;2023-07-16T07:55:46;25.90;10.20
1680;DHT22;838;51.794;12.258;2023-07-16T07:58:12;26.50;4.10
1680;DHT22;838;51.794;12.258;2023-07-16T08:00:38;27.10;1.00
1680;DHT22;838;51.794;12.258;2023-07-16T08:03:04;27.50;1.00
1680;DHT22;838;51.794;12.258;2023-07-16T08:05:31;27.60;1.00
1680;DHT22;838;51.794;12.258;2023-07-16T08:07:57;27.10;1.00
1680;DHT22;838;51.794;12.258;2023-07-16T08:10:22;26.90;1.00
1680;DHT22;838;51.794;12.258;2023-07-16T08:12:49;26.60;1.00
1680;DHT22;838;51.794;12.258;2023-07-16T08:15:14;26.60;1.00
1680;DHT22;838;51.794;12.258;2023-07-16T08:17:41;26.60;1.00
1680;DHT22;838;51.794;12.258;2023-07-16T08:20:08;26.60;1.00
1680;DHT22;838;51.794;12.258;2023-07-16T08:22:34;26.70;1.00
1680;DHT22;838;51.794;12.258;2023-07-16T08:25:00;26.60;1.00
1680;DHT22;838;51.794;12.258;2023-07-16T08:27:26;26.70;1.00
1680;DHT22;838;51.794;12.258;2023-07-16T08:29:52;26.70;1.00
1680;DHT22;838;51.794;12.258;2023-07-16T08:32:18;26.80;1.00
1680;DHT22;838;51.794;12.258;2023-07-16T08:34:44;26.90;1.00
1680;DHT22;838;51.794;12.258;2023-07-16T08:37:13;26.50;1.00
1680;DHT22;838;51.794;12.258;2023-07-16T08:39:39;26.20;1.00
1680;DHT22;838;51.794;12.258;2023-07-16T08:42:09;26.20;1.00
1680;DHT22;838;51.794;12.258;2023-07-16T08:44:36;26.10;1.00
1680;DHT22;838;51.794;12.258;2023-07-16T08:47:02;26.20;1.00
1680;DHT22;838;51.794;12.258;2023-07-16T08:49:30;26.10;1.00
1680;DHT22;838;51.794;12.258;2023-07-16T08:51:55;25.90;1.00
1680;DHT22;838;51.794;12.258;2023-07-16T08:54:22;26.20;1.00
1680;DHT22;838;51.794;12.258;2023-07-16T08:56:48;26.90;1.00
1680;DHT22;838;51.794;12.258;2023-07-16T08:59:17;27.80;1.00
1680;DHT22;838;51.794;12.258;2023-07-16T09:01:44;29.00;1.00
1680;DHT22;838;51.794;12.258;2023-07-16T09:04:11;29.30;1.00
1680;DHT22;838;51.794;12.258;2023-07-16T09:06:37;29.40;1.00
1680;DHT22;838;51.794;12.258;2023-07-16T09:09:03;28.90;1.00
1680;DHT22;838;51.794;12.258;2023-07-16T09:11:29;28.70;1.00
1680;DHT22;838;51.794;12.258;2023-07-16T09:13:57;28.40;1.00
1680;DHT22;838;51.794;12.258;2023-07-16T09:16:22;28.30;1.00
1680;DHT22;838;51.794;12.258;2023-07-16T09:18:48;28.10;1.00
1680;DHT22;838;51.794;12.258;2023-07-16T09:21:14;27.90;1.00
1680;DHT22;838;51.794;12.258;2023-07-16T09:23:45;27.60;1.00
1680;DHT22;838;51.794;12.258;2023-07-16T09:26:10;27.30;1.00
1680;DHT22;838;51.794;12.258;2023-07-16T09:28:39;28.00;1.00
1680;DHT22;838;51.794;12.258;2023-07-16T09:31:09;28.60;1.00
1680;DHT22;838;51.794;12.258;2023-07-16T09:33:35;30.00;1.00
1680;DHT22;838;51.794;12.258;2023-07-16T09:36:09;30.30;1.00
1680;DHT22;838;51.794;12.258;2023-07-16T09:38:38;29.70;1.00
1680;DHT22;838;51.794;12.258;2023-07-16T09:41:14;30.30;1.00
1680;DHT22;838;51.794;12.258;2023-07-16T09:43:46;31.00;1.00
1680;DHT22;838;51.794;12.258;2023-07-16T09:46:53;32.30;1.00
1680;DHT22;838;51.794;12.258;2023-07-16T09:50:01;33.80;1.00
1680;DHT22;838;51.794;12.258;2023-07-16T09:59:47;33.20;1.00
1680;DHT22;838;51.794;12.258;2023-07-16T10:09:39;33.30;1.00
1680;DHT22;838;51.794;12.258;2023-07-16T10:12:18;32.00;1.00
1680;DHT22;838;51.794;12.258;2023-07-16T10:14:48;30.70;1.00
1680;DHT22;838;51.794;12.258;2023-07-16T10:17:49;29.90;1.00
1680;DHT22;838;51.794;12.258;2023-07-16T10:20:37;29.40;1.00
1680;DHT22;838;51.794;12.258;2023-07-16T10:23:15;29.00;1.00
1680;DHT22;838;51.794;12.258;2023-07-16T10:26:01;28.80;1.00
1680;DHT22;838;51.794;12.258;2023-07-16T10:28:31;28.60;1.00
1680;DHT22;838;51.794;12.258;2023-07-16T10:31:17;28.70;1.00
1680;DHT22;838;51.794;12.258;2023-07-16T10:33:43;28.70;1.00
1680;DHT22;838;51.794;12.258;2023-07-16T10:36:09;28.60;1.00
1680;DHT22;838;51.794;12.258;2023-07-16T10:38:41;28.60;1.00
1680;DHT22;838;51.794;12.258;2023-07-16T10:41:08;28.60;1.00
1680;DHT22;838;51.794;12.258;2023-07-16T10:43:54;28.60;1.00
1680;DHT22;838;51.794;12.258;2023-07-16T10:46:20;28.30;1.00
1680;DHT22;838;51.794;12.258;2023-07-16T10:48:47;28.20;1.00
1680;DHT22;838;51.794;12.258;2023-07-16T10:51:16;28.10;1.00
1680;DHT22;838;51.794;12.258;2023-07-16T10:53:45;28.20;1.00
1680;DHT22;838;51.794;12.258;2023-07-16T10:56:11;28.40;1.00
1680;DHT22;838;51.794;12.258;2023-07-16T10:58:38;28.70;1.00
1680;DHT22;838;51.794;12.258;2023-07-16T11:01:03;28.70;1.00
1680;DHT22;838;51.794;12.258;2023-07-16T11:03:30;28.70;1.00
1680;DHT22;838;51.794;12.258;2023-07-16T11:05:56;28.50;1.00
1680;DHT22;838;51.794;12.258;2023-07-16T11:08:23;28.30;1.00
1680;DHT22;838;51.794;12.258;2023-07-16T11:10:58;28.30;1.00
1680;DHT22;838;51.794;12.258;2023-07-16T11:13:34;28.40;1.00
1680;DHT22;838;51.794;12.258;2023-07-16T11:16:09;28.50;1.00
1680;DHT22;838;51.794;12.258;2023-07-16T11:18:41;28.80;1.00
1680;DHT22;838;51.794;12.258;2023-07-16T11:21:07;29.00;1.00
1680;DHT22;838;51.794;12.258;2023-07-16T11:23:39;29.20;1.00
1680;DHT22;838;51.794;12.258;2023-07-16T11:26:05;29.30;1.00
1680;DHT22;838;51.794;12.258;2023-07-16T11:28:41;29.30;1.00
1680;DHT22;838;51.794;12.258;2023-07-16T11:31:19;29.50;1.00
1680;DHT22;838;51.794;12.258;2023-07-16T11:33:45;29.50;1.00
1680;DHT22;838;51.794;12.258;2023-07-16T11:36:12;29.60;1.00
1680;DHT22;838;51.794;12.258;2023-07-16T11:38:38;29.50;1.00
1680;DHT22;838;51.794;12.258;2023-07-16T11:41:04;29.40;1.00
1680;DHT22;838;51.794;12.258;2023-07-16T11:43:34;29.20;1.00
1680;DHT22;838;51.794;12.258;2023-07-16T11:46:02;29.10;1.00
1680;DHT22;838;51.794;12.258;2023-07-16T11:48:28;29.00;1.00
1680;DHT22;838;51.794;12.258;2023-07-16T11:50:54;28.90;1.00
1680;DHT22;838;51.794;12.258;2023-07-16T11:53:20;28.70;1.00
1680;DHT22;838;51.794;12.258;2023-07-16T11:55:46;28.60;1.00
1680;DHT22;838;51.794;12.258;2023-07-16T11:58:11;28.70;1.00
1680;DHT22;838;51.794;12.258;2023-07-16T12:00:37;28.80;1.00
1680;DHT22;838;51.794;12.258;2023-07-16T12:03:03;28.90;1.00
1680;DHT22;838;51.794;12.258;2023-07-16T12:05:29;28.90;1.00
1680;DHT22;838;51.794;12.258;2023-07-16T12:07:54;29.00;1.00
1680;DHT22;838;51.794;12.258;2023-07-16T12:10:20;29.00;1.00
1680;DHT22;838;51.794;12.258;2023-07-16T12:12:46;28.90;1.00
1680;DHT22;838;51.794;12.258;2023-07-16T12:15:12;28.80;1.00
1680;DHT22;838;51.794;12.258;2023-07-16T12:17:37;28.80;1.00
1680;DHT22;838;51.794;12.258;2023-07-16T12:20:03;28.80;1.00
1680;DHT22;838;51.794;12.258;2023-07-16T12:22:30;28.90;1.00
1680;DHT22;838;51.794;12.258;2023-07-16T12:24:55;28.90;1.00
1680;DHT22;838;51.794;12.258;2023-07-16T12:27:24;29.10;1.00
1680;DHT22;838;51.794;12.258;2023-07-16T12:29:50;29.30;1.00
1680;DHT22;838;51.794;12.258;2023-07-16T12:32:17;29.40;1.00
1680;DHT22;838;51.794;12.258;2023-07-16T12:34:43;29.10;1.00
1680;DHT22;838;51.794;12.258;2023-07-16T12:37:10;29.10;1.00
1680;DHT22;838;51.794;12.258;2023-07-16T12:39:35;29.10;1.00
1680;DHT22;838;51.794;12.258;2023-07-16T12:42:01;29.20;1.00
1680;DHT22;838;51.794;12.258;2023-07-16T12:44:28;29.20;1.00
1680;DHT22;838;51.794;12.258;2023-07-16T12:46:54;29.40;1.00
1680;DHT22;838;51.794;12.258;2023-07-16T12:49:19;29.40;1.00
1680;DHT22;838;51.794;12.258;2023-07-16T12:51:46;29.30;1.00
1680;DHT22;838;51.794;12.258;2023-07-16T12:54:14;29.40;1.00
1680;DHT22;838;51.794;12.258;2023-07-16T12:56:40;29.40;1.00
1680;DHT22;838;51.794;12.258;2023-07-16T12:59:06;29.50;1.00
1680;DHT22;838;51.794;12.258;2023-07-16T13:01:32;29.60;1.00
1680;DHT22;838;51.794;12.258;2023-07-16T13:03:59;29.70;1.00
1680;DHT22;838;51.794;12.258;2023-07-16T13:06:25;29.70;1.00
1680;DHT22;838;51.794;12.258;2023-07-16T13:08:51;29.40;1.00
1680;DHT22;838;51.794;12.258;2023-07-16T13:11:16;29.40;1.00
1680;DHT22;838;51.794;12.258;2023-07-16T13:13:42;29.30;1.00
1680;DHT22;838;51.794;12.258;2023-07-16T13:16:09;29.30;1.00
1680;DHT22;838;51.794;12.258;2023-07-16T13:18:34;29.10;1.00
1680;DHT22;838;51.794;12.258;2023-07-16T13:21:00;29.10;1.00
1680;DHT22;838;51.794;12.258;2023-07-16T13:23:26;29.00;1.00
1680;DHT22;838;51.794;12.258;2023-07-16T13:25:51;29.00;1.00
1680;DHT22;838;51.794;12.258;2023-07-16T13:28:18;29.00;1.00
1680;DHT22;838;51.794;12.258;2023-07-16T13:30:44;29.00;1.00
1680;DHT22;838;51.794;12.258;2023-07-16T13:33:09;29.20;1.00
1680;DHT22;838;51.794;12.258;2023-07-16T13:35:35;29.30;1.00
1680;DHT22;838;51.794;12.258;2023-07-16T13:38:00;29.40;1.00
1680;DHT22;838;51.794;12.258;2023-07-16T13:40:27;29.50;1.00
1680;DHT22;838;51.794;12.258;2023-07-16T13:42:52;29.40;1.00
1680;DHT22;838;51.794;12.258;2023-07-16T13:45:18;29.40;1.00
1680;DHT22;838;51.794;12.258;2023-07-16T13:47:45;29.50;1.00
1680;DHT22;838;51.794;12.258;2023-07-16T13:50:10;29.70;1.00
1680;DHT22;838;51.794;12.258;2023-07-16T13:52:36;29.80;1.00
1680;DHT22;838;51.794;12.258;2023-07-16T13:55:03;29.50;1.00
1680;DHT22;838;51.794;12.258;2023-07-16T13:57:29;29.50;1.00
1680;DHT22;838;51.794;12.258;2023-07-16T13:59:55;29.60;1.00
1680;DHT22;838;51.794;12.258;2023-07-16T14:02:20;29.60;1.00
1680;DHT22;838;51.794;12.258;2023-07-16T14:04:46;29.50;1.00
1680;DHT22;838;51.794;12.258;2023-07-16T14:07:13;29.40;1.00
1680;DHT22;838;51.794;12.258;2023-07-16T14:09:38;29.30;1.00
1680;DHT22;838;51.794;12.258;2023-07-16T14:12:04;29.20;1.00
1680;DHT22;838;51.794;12.258;2023-07-16T14:14:30;29.10;1.00
1680;DHT22;838;51.794;12.258;2023-07-16T14:16:55;29.00;1.00
1680;DHT22;838;51.794;12.258;2023-07-16T14:19:21;29.10;1.00
1680;DHT22;838;51.794;12.258;2023-07-16T14:21:47;29.10;1.00
1680;DHT22;838;51.794;12.258;2023-07-16T14:24:12;29.20;1.00
1680;DHT22;838;51.794;12.258;2023-07-16T14:26:38;29.30;1.00
1680;DHT22;838;51.794;12.258;2023-07-16T14:29:04;29.40;1.00
1680;DHT22;838;51.794;12.258;2023-07-16T14:31:30;29.40;1.00
1680;DHT22;838;51.794;12.258;2023-07-16T14:33:55;29.40;1.00
1680;DHT22;838;51.794;12.258;2023-07-16T14:36:21;29.50;1.00
1680;DHT22;838;51.794;12.258;2023-07-16T14:38:48;29.60;1.00
1680;DHT22;838;51.794;12.258;2023-07-16T14:41:14;29.50;1.00
1680;DHT22;838;51.794;12.258;2023-07-16T14:43:40;29.60;1.00
1680;DHT22;838;51.794;12.258;2023-07-16T14:46:06;29.60;1.00
1680;DHT22;838;51.794;12.258;2023-07-16T14:48:31;29.60;1.00
1680;DHT22;838;51.794;12.258;2023-07-16T14:50:57;29.50;1.00
1680;DHT22;838;51.794;12.258;2023-07-16T14:53:23;29.50;1.00
1680;DHT22;838;51.794;12.258;2023-07-16T14:55:49;29.60;1.00
1680;DHT22;838;51.794;12.258;2023-07-16T14:58:18;29.50;1.00
1680;DHT22;838;51.794;12.258;2023-07-16T15:00:44;29.40;1.00
1680;DHT22;838;51.794;12.258;2023-07-16T15:03:10;29.40;1.00
1680;DHT22;838;51.794;12.258;2023-07-16T15:05:36;29.60;1.00
1680;DHT22;838;51.794;12.258;2023-07-16T15:08:02;29.70;1.00
1680;DHT22;838;51.794;12.258;2023-07-16T15:10:29;29.70;1.00
1680;DHT22;838;51.794;12.258;2023-07-16T15:12:55;29.80;1.00
1680;DHT22;838;51.794;12.258;2023-07-16T15:15:20;29.80;1.00
1680;DHT22;838;51.794;12.258;2023-07-16T15:17:46;29.70;1.00
1680;DHT22;838;51.794;12.258;2023-07-16T15:20:12;29.50;1.00
1680;DHT22;838;51.794;12.258;2023-07-16T15:22:37;29.40;1.00
1680;DHT22;838;51.794;12.258;2023-07-16T15:25:04;29.40;1.00
1680;DHT22;838;51.794;12.258;2023-07-16T15:27:30;29.50;1.00
1680;DHT22;838;51.794;12.258;2023-07-16T15:29:56;29.70;1.00
1680;DHT22;838;51.794;12.258;2023-07-16T15:32:22;29.70;1.00
1680;DHT22;838;51.794;12.258;2023-07-16T15:34:48;29.70;1.00
1680;DHT22;838;51.794;12.258;2023-07-16T15:37:14;29.70;1.00
1680;DHT22;838;51.794;12.258;2023-07-16T15:39:39;29.50;1.00
1680;DHT22;838;51.794;12.258;2023-07-16T15:42:05;29.50;1.00
1680;DHT22;838;51.794;12.258;2023-07-16T15:44:31;29.70;1.00
1680;DHT22;838;51.794;12.258;2023-07-16T15:46:57;29.90;1.00
1680;DHT22;838;51.794;12.258;2023-07-16T15:49:24;29.80;1.00
1680;DHT22;838;51.794;12.258;2023-07-16T15:51:50;29.50;1.00
1680;DHT22;838;51.794;12.258;2023-07-16T15:54:16;29.50;1.00
1680;DHT22;838;51.794;12.258;2023-07-16T15:56:42;29.60;1.00
1680;DHT22;838;51.794;12.258;2023-07-16T15:59:07;29.70;1.00
1680;DHT22;838;51.794;12.258;2023-07-16T16:01:33;29.60;1.00
1680;DHT22;838;51.794;12.258;2023-07-16T16:03:59;29.60;1.00
1680;DHT22;838;51.794;12.258;2023-07-16T16:06:24;29.60;1.00
1680;DHT22;838;51.794;12.258;2023-07-16T16:08:50;29.50;1.00
1680;DHT22;838;51.794;12.258;2023-07-16T16:11:16;29.40;1.00
1680;DHT22;838;51.794;12.258;2023-07-16T16:13:42;29.40;1.00
1680;DHT22;838;51.794;12.258;2023-07-16T16:16:08;29.20;1.00
1680;DHT22;838;51.794;12.258;2023-07-16T16:18:34;29.30;1.00
1680;DHT22;838;51.794;12.258;2023-07-16T16:21:00;29.40;1.00
1680;DHT22;838;51.794;12.258;2023-07-16T16:23:27;29.30;1.00
1680;DHT22;838;51.794;12.258;2023-07-16T16:25:53;29.10;1.00
1680;DHT22;838;51.794;12.258;2023-07-16T16:28:19;29.30;1.00
1680;DHT22;838;51.794;12.258;2023-07-16T16:30:45;29.30;1.00